sensor_id;sensor_type;location;lat;lon;timestamp;pressure;altitude;pressure_sealevel;temperature;humidity
41686;BME280;27370;42.764;23.432;2023-04-01T00:02:06;94718.59;;;6.94;100.00
41686;BME280;27370;42.764;23.432;2023-04-01T00:04:32;94707.78;;;6.98;100.00
41686;BME280;27370;42.764;23.432;2023-04-01T00:06:57;94721.78;;;7.16;100.00
41686;BME280;27370;42.764;23.432;2023-04-01T00:09:23;94709.53;;;7.12;100.00
41686;BME280;27370;42.764;23.432;2023-04-01T00:11:49;94712.81;;;7.26;100.00
41686;BME280;27370;42.764;23.432;2023-04-01T00:14:14;94711.53;;;7.34;100.00
41686;BME280;27370;42.764;23.432;2023-04-01T00:16:40;94708.41;;;7.36;100.00
41686;BME280;27370;42.764;23.432;2023-04-01T00:19:05;94710.41;;;7.32;100.00
41686;BME280;27370;42.764;23.432;2023-04-01T00:21:31;94708.38;;;7.40;100.00
41686;BME280;27370;42.764;23.432;2023-04-01T00:23:57;94709.88;;;7.41;100.00
41686;BME280;27370;42.764;23.432;2023-04-01T00:26:23;94684.72;;;7.24;100.00
41686;BME280;27370;42.764;23.432;2023-04-01T00:28:50;94696.00;;;7.42;100.00
41686;BME280;27370;42.764;23.432;2023-04-01T00:31:15;94705.94;;;7.49;100.00
41686;BME280;27370;42.764;23.432;2023-04-01T00:33:42;94695.06;;;7.56;100.00
41686;BME280;27370;42.764;23.432;2023-04-01T00:36:15;94701.84;;;7.64;100.00
41686;BME280;27370;42.764;23.432;2023-04-01T00:38:41;94688.06;;;7.58;100.00
41686;BME280;27370;42.764;23.432;2023-04-01T00:41:08;94705.34;;;7.61;100.00
41686;BME280;27370;42.764;23.432;2023-04-01T00:43:34;94685.38;;;7.58;100.00
41686;BME280;27370;42.764;23.432;2023-04-01T00:46:00;94687.38;;;7.54;100.00
41686;BME280;27370;42.764;23.432;2023-04-01T00:48:32;94677.38;;;7.55;100.00
41686;BME280;27370;42.764;23.432;2023-04-01T00:51:08;94676.03;;;7.40;100.00
41686;BME280;27370;42.764;23.432;2023-04-01T00:53:39;94650.59;;;7.17;100.00
41686;BME280;27370;42.764;23.432;2023-04-01T00:56:12;94675.66;;;7.14;100.00
41686;BME280;27370;42.764;23.432;2023-04-01T00:58:49;94659.97;;;7.09;100.00
41686;BME280;27370;42.764;23.432;2023-04-01T01:01:16;94660.09;;;6.98;100.00
41686;BME280;27370;42.764;23.432;2023-04-01T01:03:42;94661.47;;;6.83;100.00
41686;BME280;27370;42.764;23.432;2023-04-01T01:06:23;94659.66;;;6.73;100.00
41686;BME280;27370;42.764;23.432;2023-04-01T01:09:17;94652.88;;;6.92;100.00
41686;BME280;27370;42.764;23.432;2023-04-01T01:12:04;94651.53;;;6.76;100.00
41686;BME280;27370;42.764;23.432;2023-04-01T01:17:29;94642.31;;;6.47;100.00
41686;BME280;27370;42.764;23.432;2023-04-01T01:20:10;94647.19;;;6.25;100.00
41686;BME280;27370;42.764;23.432;2023-04-01T01:28:33;94656.03;;;6.56;100.00
41686;BME280;27370;42.764;23.432;2023-04-01T01:36:37;94640.72;;;6.19;100.00
41686;BME280;27370;42.764;23.432;2023-04-01T01:39:07;94626.28;;;6.40;100.00
41686;BME280;27370;42.764;23.432;2023-04-01T01:41:36;94624.59;;;6.19;100.00
41686;BME280;27370;42.764;23.432;2023-04-01T01:44:05;94611.41;;;5.98;100.00
41686;BME280;27370;42.764;23.432;2023-04-01T01:46:32;94618.16;;;6.13;100.00
41686;BME280;27370;42.764;23.432;2023-04-01T01:48:59;94609.78;;;6.04;100.00
41686;BME280;27370;42.764;23.432;2023-04-01T01:51:27;94600.50;;;6.12;100.00
41686;BME280;27370;42.764;23.432;2023-04-01T01:53:53;94598.13;;;6.18;100.00
41686;BME280;27370;42.764;23.432;2023-04-01T01:56:23;94601.09;;;5.89;100.00
41686;BME280;27370;42.764;23.432;2023-04-01T01:58:53;94606.44;;;5.96;100.00
41686;BME280;27370;42.764;23.432;2023-04-01T02:01:27;94612.16;;;5.98;100.00
41686;BME280;27370;42.764;23.432;2023-04-01T02:03:57;94614.44;;;6.00;100.00
41686;BME280;27370;42.764;23.432;2023-04-01T02:06:26;94603.22;;;5.71;100.00
41686;BME280;27370;42.764;23.432;2023-04-01T02:09:03;94613.59;;;5.69;100.00
41686;BME280;27370;42.764;23.432;2023-04-01T02:11:41;94603.44;;;5.42;100.00
41686;BME280;27370;42.764;23.432;2023-04-01T02:16:57;94581.41;;;5.62;100.00
41686;BME280;27370;42.764;23.432;2023-04-01T02:19:31;94574.13;;;5.62;100.00
41686;BME280;27370;42.764;23.432;2023-04-01T02:22:01;94584.53;;;5.57;100.00
41686;BME280;27370;42.764;23.432;2023-04-01T02:24:30;94573.72;;;5.67;100.00
41686;BME280;27370;42.764;23.432;2023-04-01T02:26:56;94584.78;;;5.73;100.00
41686;BME280;27370;42.764;23.432;2023-04-01T02:29:23;94572.25;;;5.97;100.00
41686;BME280;27370;42.764;23.432;2023-04-01T02:31:51;94585.97;;;5.68;100.00
41686;BME280;27370;42.764;23.432;2023-04-01T02:34:19;94596.09;;;5.95;100.00
41686;BME280;27370;42.764;23.432;2023-04-01T02:36:47;94584.28;;;5.81;100.00
41686;BME280;27370;42.764;23.432;2023-04-01T02:39:13;94580.53;;;5.75;100.00
41686;BME280;27370;42.764;23.432;2023-04-01T02:41:41;94582.75;;;5.80;100.00
41686;BME280;27370;42.764;23.432;2023-04-01T02:44:07;94585.56;;;5.70;100.00
41686;BME280;27370;42.764;23.432;2023-04-01T02:46:32;94590.53;;;5.71;100.00
41686;BME280;27370;42.764;23.432;2023-04-01T02:48:58;94594.38;;;5.70;100.00
41686;BME280;27370;42.764;23.432;2023-04-01T02:51:25;94604.78;;;5.68;100.00
41686;BME280;27370;42.764;23.432;2023-04-01T02:53:51;94598.16;;;5.76;100.00
41686;BME280;27370;42.764;23.432;2023-04-01T02:56:16;94603.03;;;5.85;100.00
41686;BME280;27370;42.764;23.432;2023-04-01T02:58:42;94601.09;;;5.89;100.00
41686;BME280;27370;42.764;23.432;2023-04-01T03:01:08;94601.50;;;5.91;100.00
41686;BME280;27370;42.764;23.432;2023-04-01T03:03:33;94603.75;;;5.96;100.00
41686;BME280;27370;42.764;23.432;2023-04-01T03:06:05;94605.31;;;5.94;100.00
41686;BME280;27370;42.764;23.432;2023-04-01T03:08:31;94596.47;;;5.93;100.00
41686;BME280;27370;42.764;23.432;2023-04-01T03:10:57;94602.22;;;5.95;100.00
41686;BME280;27370;42.764;23.432;2023-04-01T03:13:23;94615.13;;;6.07;100.00
41686;BME280;27370;42.764;23.432;2023-04-01T03:15:48;94609.63;;;6.18;100.00
41686;BME280;27370;42.764;23.432;2023-04-01T03:18:14;94603.56;;;6.14;100.00
41686;BME280;27370;42.764;23.432;2023-04-01T03:20:39;94591.59;;;6.19;100.00
41686;BME280;27370;42.764;23.432;2023-04-01T03:23:05;94604.00;;;6.39;100.00
41686;BME280;27370;42.764;23.432;2023-04-01T03:25:30;94600.22;;;6.33;100.00
41686;BME280;27370;42.764;23.432;2023-04-01T03:27:56;94607.72;;;6.49;100.00
41686;BME280;27370;42.764;23.432;2023-04-01T03:30:24;94590.22;;;6.37;100.00
41686;BME280;27370;42.764;23.432;2023-04-01T03:32:50;94608.75;;;6.59;100.00
41686;BME280;27370;42.764;23.432;2023-04-01T03:35:16;94606.84;;;6.59;100.00
41686;BME280;27370;42.764;23.432;2023-04-01T03:37:41;94588.22;;;6.41;100.00
41686;BME280;27370;42.764;23.432;2023-04-01T03:40:08;94603.81;;;6.54;100.00
41686;BME280;27370;42.764;23.432;2023-04-01T03:42:34;94609.66;;;6.49;100.00
41686;BME280;27370;42.764;23.432;2023-04-01T03:45:00;94596.97;;;6.49;100.00
41686;BME280;27370;42.764;23.432;2023-04-01T03:47:25;94597.00;;;6.45;100.00
41686;BME280;27370;42.764;23.432;2023-04-01T03:49:51;94596.09;;;6.56;100.00
41686;BME280;27370;42.764;23.432;2023-04-01T03:52:16;94583.63;;;6.69;100.00
41686;BME280;27370;42.764;23.432;2023-04-01T03:54:42;94590.38;;;6.54;100.00
41686;BME280;27370;42.764;23.432;2023-04-01T03:57:08;94573.34;;;6.64;100.00
41686;BME280;27370;42.764;23.432;2023-04-01T03:59:34;94568.00;;;6.60;100.00
41686;BME280;27370;42.764;23.432;2023-04-01T04:01:59;94569.47;;;6.65;100.00
41686;BME280;27370;42.764;23.432;2023-04-01T04:04:26;94544.91;;;6.63;100.00
41686;BME280;27370;42.764;23.432;2023-04-01T04:06:51;94550.88;;;6.74;100.00
41686;BME280;27370;42.764;23.432;2023-04-01T04:09:18;94528.63;;;6.97;100.00
41686;BME280;27370;42.764;23.432;2023-04-01T04:11:44;94516.69;;;6.98;100.00
41686;BME280;27370;42.764;23.432;2023-04-01T04:14:09;94509.50;;;6.91;100.00
41686;BME280;27370;42.764;23.432;2023-04-01T04:16:35;94506.00;;;6.94;100.00
41686;BME280;27370;42.764;23.432;2023-04-01T04:19:04;94499.63;;;6.85;100.00
41686;BME280;27370;42.764;23.432;2023-04-01T04:21:30;94496.13;;;6.88;100.00
41686;BME280;27370;42.764;23.432;2023-04-01T04:23:56;94478.44;;;6.63;100.00
41686;BME280;27370;42.764;23.432;2023-04-01T04:26:21;94477.13;;;6.48;100.00
41686;BME280;27370;42.764;23.432;2023-04-01T04:28:55;94467.81;;;6.53;100.00
41686;BME280;27370;42.764;23.432;2023-04-01T04:31:22;94473.63;;;6.51;100.00
41686;BME280;27370;42.764;23.432;2023-04-01T04:33:49;94462.44;;;6.80;100.00
41686;BME280;27370;42.764;23.432;2023-04-01T04:36:15;94449.97;;;6.89;100.00
41686;BME280;27370;42.764;23.432;2023-04-01T04:38:40;94444.41;;;6.76;100.00
41686;BME280;27370;42.764;23.432;2023-04-01T04:41:11;94443.63;;;6.76;100.00
41686;BME280;27370;42.764;23.432;2023-04-01T04:43:39;94437.47;;;6.99;100.00
41686;BME280;27370;42.764;23.432;2023-04-01T04:46:07;94435.13;;;7.01;100.00
41686;BME280;27370;42.764;23.432;2023-04-01T04:48:33;94424.22;;;6.88;100.00
41686;BME280;27370;42.764;23.432;2023-04-01T04:50:58;94433.75;;;6.93;100.00
41686;BME280;27370;42.764;23.432;2023-04-01T04:53:25;94419.59;;;6.89;100.00
41686;BME280;27370;42.764;23.432;2023-04-01T04:55:51;94439.13;;;6.93;100.00
41686;BME280;27370;42.764;23.432;2023-04-01T04:58:33;94433.63;;;7.00;100.00
41686;BME280;27370;42.764;23.432;2023-04-01T05:01:09;94444.22;;;7.11;100.00
41686;BME280;27370;42.764;23.432;2023-04-01T05:03:36;94435.78;;;7.09;100.00
41686;BME280;27370;42.764;23.432;2023-04-01T05:06:02;94436.34;;;7.20;100.00
41686;BME280;27370;42.764;23.432;2023-04-01T05:08:28;94440.25;;;7.38;100.00
41686;BME280;27370;42.764;23.432;2023-04-01T05:10:55;94431.22;;;7.49;100.00
41686;BME280;27370;42.764;23.432;2023-04-01T05:13:20;94416.16;;;7.51;100.00
41686;BME280;27370;42.764;23.432;2023-04-01T05:15:46;94410.13;;;7.44;100.00
41686;BME280;27370;42.764;23.432;2023-04-01T05:18:12;94419.53;;;7.35;100.00
41686;BME280;27370;42.764;23.432;2023-04-01T05:20:37;94409.44;;;7.40;100.00
41686;BME280;27370;42.764;23.432;2023-04-01T05:23:03;94415.28;;;7.15;100.00
41686;BME280;27370;42.764;23.432;2023-04-01T05:25:29;94420.00;;;7.11;100.00
41686;BME280;27370;42.764;23.432;2023-04-01T05:27:58;94403.06;;;7.10;100.00
41686;BME280;27370;42.764;23.432;2023-04-01T05:30:23;94402.09;;;7.20;100.00
41686;BME280;27370;42.764;23.432;2023-04-01T05:33:12;94404.84;;;6.97;100.00
41686;BME280;27370;42.764;23.432;2023-04-01T05:35:39;94410.88;;;7.44;100.00
41686;BME280;27370;42.764;23.432;2023-04-01T05:38:05;94414.97;;;7.72;100.00
41686;BME280;27370;42.764;23.432;2023-04-01T05:40:31;94432.88;;;7.98;100.00
41686;BME280;27370;42.764;23.432;2023-04-01T05:42:58;94417.81;;;8.53;100.00
41686;BME280;27370;42.764;23.432;2023-04-01T05:45:24;94412.84;;;8.68;100.00
41686;BME280;27370;42.764;23.432;2023-04-01T05:47:59;94423.13;;;8.89;100.00
41686;BME280;27370;42.764;23.432;2023-04-01T05:50:26;94423.03;;;8.93;100.00
41686;BME280;27370;42.764;23.432;2023-04-01T05:52:52;94422.03;;;8.87;100.00
41686;BME280;27370;42.764;23.432;2023-04-01T05:55:18;94420.94;;;8.84;100.00
41686;BME280;27370;42.764;23.432;2023-04-01T05:57:46;94421.97;;;9.03;100.00
41686;BME280;27370;42.764;23.432;2023-04-01T06:00:12;94413.81;;;9.07;100.00
41686;BME280;27370;42.764;23.432;2023-04-01T06:02:39;94411.56;;;9.47;100.00
41686;BME280;27370;42.764;23.432;2023-04-01T06:07:40;94405.47;;;9.59;100.00
41686;BME280;27370;42.764;23.432;2023-04-01T06:10:16;94411.47;;;9.79;100.00
41686;BME280;27370;42.764;23.432;2023-04-01T06:15:40;94411.41;;;9.67;100.00
41686;BME280;27370;42.764;23.432;2023-04-01T06:32:36;94397.84;;;10.72;100.00
41686;BME280;27370;42.764;23.432;2023-04-01T06:43:04;94389.28;;;12.48;100.00
41686;BME280;27370;42.764;23.432;2023-04-01T06:54:55;94370.66;;;13.05;100.00
41686;BME280;27370;42.764;23.432;2023-04-01T06:57:46;94347.75;;;13.43;100.00
41686;BME280;27370;42.764;23.432;2023-04-01T07:00:35;94348.19;;;13.41;100.00
41686;BME280;27370;42.764;23.432;2023-04-01T07:03:23;94343.75;;;13.81;100.00
41686;BME280;27370;42.764;23.432;2023-04-01T07:05:53;94346.31;;;13.75;100.00
41686;BME280;27370;42.764;23.432;2023-04-01T07:08:25;94347.44;;;14.01;100.00
41686;BME280;27370;42.764;23.432;2023-04-01T07:11:04;94347.91;;;14.00;100.00
41686;BME280;27370;42.764;23.432;2023-04-01T07:13:57;94336.47;;;13.87;100.00
41686;BME280;27370;42.764;23.432;2023-04-01T07:16:34;94343.13;;;13.86;100.00
41686;BME280;27370;42.764;23.432;2023-04-01T07:22:04;94320.97;;;14.11;100.00
41686;BME280;27370;42.764;23.432;2023-04-01T07:24:51;94317.34;;;14.05;100.00
41686;BME280;27370;42.764;23.432;2023-04-01T07:27:17;94320.97;;;14.11;100.00
41686;BME280;27370;42.764;23.432;2023-04-01T07:29:44;94329.66;;;14.24;100.00
41686;BME280;27370;42.764;23.432;2023-04-01T07:32:20;94332.47;;;14.39;100.00
41686;BME280;27370;42.764;23.432;2023-04-01T07:34:51;94330.44;;;14.58;100.00
41686;BME280;27370;42.764;23.432;2023-04-01T07:37:28;94310.25;;;14.64;100.00
41686;BME280;27370;42.764;23.432;2023-04-01T07:46:43;94317.34;;;15.10;100.00
41686;BME280;27370;42.764;23.432;2023-04-01T07:49:17;94313.81;;;15.18;100.00
41686;BME280;27370;42.764;23.432;2023-04-01T07:52:02;94313.25;;;14.90;98.13
41686;BME280;27370;42.764;23.432;2023-04-01T07:57:15;94315.97;;;15.14;95.75
41686;BME280;27370;42.764;23.432;2023-04-01T08:20:33;94297.09;;;15.55;100.00
41686;BME280;27370;42.764;23.432;2023-04-01T08:23:11;94287.94;;;15.67;94.29
41686;BME280;27370;42.764;23.432;2023-04-01T08:25:45;94284.41;;;15.22;92.96
41686;BME280;27370;42.764;23.432;2023-04-01T08:28:28;94270.66;;;15.31;100.00
41686;BME280;27370;42.764;23.432;2023-04-01T08:31:00;94270.56;;;15.55;97.18
41686;BME280;27370;42.764;23.432;2023-04-01T08:33:31;94254.31;;;15.46;99.68
41686;BME280;27370;42.764;23.432;2023-04-01T08:36:20;94257.50;;;15.45;99.02
41686;BME280;27370;42.764;23.432;2023-04-01T08:39:03;94232.41;;;15.70;100.00
41686;BME280;27370;42.764;23.432;2023-04-01T09:12:35;94195.38;;;17.89;78.96
41686;BME280;27370;42.764;23.432;2023-04-01T09:37:46;94174.38;;;17.75;72.59
41686;BME280;27370;42.764;23.432;2023-04-01T09:40:31;94171.69;;;17.86;75.94
41686;BME280;27370;42.764;23.432;2023-04-01T09:51:51;94144.34;;;17.55;76.55
41686;BME280;27370;42.764;23.432;2023-04-01T09:54:40;94120.88;;;17.80;74.11
41686;BME280;27370;42.764;23.432;2023-04-01T10:09:39;94109.53;;;17.98;73.72
41686;BME280;27370;42.764;23.432;2023-04-01T10:15:31;94098.94;;;18.22;66.11
41686;BME280;27370;42.764;23.432;2023-04-01T10:18:26;94096.59;;;18.04;69.05
41686;BME280;27370;42.764;23.432;2023-04-01T10:47:57;94077.41;;;16.87;74.20
41686;BME280;27370;42.764;23.432;2023-04-01T10:53:12;94070.66;;;16.82;76.23
41686;BME280;27370;42.764;23.432;2023-04-01T11:02:44;94048.34;;;16.90;72.56
41686;BME280;27370;42.764;23.432;2023-04-01T11:17:17;94018.84;;;16.42;77.77
41686;BME280;27370;42.764;23.432;2023-04-01T11:36:47;94053.75;;;15.66;87.98
41686;BME280;27370;42.764;23.432;2023-04-01T11:39:46;94067.25;;;15.75;77.46
41686;BME280;27370;42.764;23.432;2023-04-01T11:42:49;94075.56;;;15.66;78.07
41686;BME280;27370;42.764;23.432;2023-04-01T11:46:10;94111.88;;;15.57;80.50
41686;BME280;27370;42.764;23.432;2023-04-01T11:49:16;94170.50;;;14.73;100.00
41686;BME280;27370;42.764;23.432;2023-04-01T11:52:01;94205.91;;;14.01;100.00
41686;BME280;27370;42.764;23.432;2023-04-01T11:54:56;94245.34;;;12.30;100.00
41686;BME280;27370;42.764;23.432;2023-04-01T12:00:43;94265.50;;;10.39;100.00
41686;BME280;27370;42.764;23.432;2023-04-01T12:03:37;94285.81;;;10.22;100.00
41686;BME280;27370;42.764;23.432;2023-04-01T12:06:22;94287.53;;;10.03;100.00
41686;BME280;27370;42.764;23.432;2023-04-01T12:09:04;94300.50;;;9.70;100.00
41686;BME280;27370;42.764;23.432;2023-04-01T12:14:29;94303.50;;;9.47;100.00
41686;BME280;27370;42.764;23.432;2023-04-01T12:17:04;94284.91;;;9.36;100.00
41686;BME280;27370;42.764;23.432;2023-04-01T12:27:57;94281.38;;;9.65;100.00
41686;BME280;27370;42.764;23.432;2023-04-01T12:30:49;94287.84;;;9.80;100.00
41686;BME280;27370;42.764;23.432;2023-04-01T12:41:58;94279.38;;;10.16;100.00
41686;BME280;27370;42.764;23.432;2023-04-01T13:01:09;94266.38;;;10.36;100.00
41686;BME280;27370;42.764;23.432;2023-04-01T13:06:29;94236.22;;;10.25;100.00
41686;BME280;27370;42.764;23.432;2023-04-01T13:28:24;94196.47;;;10.35;100.00
41686;BME280;27370;42.764;23.432;2023-04-01T13:31:13;94203.41;;;10.58;100.00
41686;BME280;27370;42.764;23.432;2023-04-01T13:36:28;94205.41;;;11.32;100.00
41686;BME280;27370;42.764;23.432;2023-04-01T13:42:01;94200.50;;;11.98;100.00
41686;BME280;27370;42.764;23.432;2023-04-01T13:44:37;94194.50;;;12.03;100.00
41686;BME280;27370;42.764;23.432;2023-04-01T14:06:52;94158.28;;;11.79;100.00
41686;BME280;27370;42.764;23.432;2023-04-01T14:23:51;94140.22;;;11.94;100.00
41686;BME280;27370;42.764;23.432;2023-04-01T14:29:41;94130.59;;;12.30;100.00
41686;BME280;27370;42.764;23.432;2023-04-01T14:48:38;94114.22;;;12.94;100.00
41686;BME280;27370;42.764;23.432;2023-04-01T14:51:16;94104.28;;;12.81;100.00
41686;BME280;27370;42.764;23.432;2023-04-01T14:59:07;94092.53;;;12.66;100.00
41686;BME280;27370;42.764;23.432;2023-04-01T15:01:50;94098.59;;;12.70;100.00
41686;BME280;27370;42.764;23.432;2023-04-01T15:14:07;94117.78;;;12.48;100.00
41686;BME280;27370;42.764;23.432;2023-04-01T15:30:00;94104.78;;;12.62;100.00
41686;BME280;27370;42.764;23.432;2023-04-01T15:32:59;94090.44;;;12.70;100.00
41686;BME280;27370;42.764;23.432;2023-04-01T15:43:30;94113.38;;;12.69;100.00
41686;BME280;27370;42.764;23.432;2023-04-01T15:46:12;94099.91;;;12.75;100.00
41686;BME280;27370;42.764;23.432;2023-04-01T15:49:00;94103.72;;;12.68;100.00
41686;BME280;27370;42.764;23.432;2023-04-01T15:54:25;94265.13;;;11.90;100.00
41686;BME280;27370;42.764;23.432;2023-04-01T16:02:47;94309.72;;;7.79;100.00
41686;BME280;27370;42.764;23.432;2023-04-01T16:05:43;94312.88;;;7.58;100.00
41686;BME280;27370;42.764;23.432;2023-04-01T16:18:34;94338.47;;;7.10;100.00
41686;BME280;27370;42.764;23.432;2023-04-01T16:21:12;94335.44;;;7.08;100.00
41686;BME280;27370;42.764;23.432;2023-04-01T16:23:49;94350.91;;;7.04;100.00
41686;BME280;27370;42.764;23.432;2023-04-01T16:26:39;94339.91;;;7.15;100.00
41686;BME280;27370;42.764;23.432;2023-04-01T16:29:24;94349.31;;;7.26;100.00
41686;BME280;27370;42.764;23.432;2023-04-01T16:31:58;94342.75;;;7.27;100.00
41686;BME280;27370;42.764;23.432;2023-04-01T16:34:38;94355.81;;;7.29;100.00
41686;BME280;27370;42.764;23.432;2023-04-01T16:37:33;94367.44;;;7.42;100.00
41686;BME280;27370;42.764;23.432;2023-04-01T16:42:57;94364.91;;;7.55;100.00
41686;BME280;27370;42.764;23.432;2023-04-01T16:51:23;94372.66;;;7.33;100.00
41686;BME280;27370;42.764;23.432;2023-04-01T16:54:04;94387.53;;;7.18;100.00
41686;BME280;27370;42.764;23.432;2023-04-01T16:56:42;94388.28;;;6.98;100.00
41686;BME280;27370;42.764;23.432;2023-04-01T17:02:02;94386.97;;;6.87;100.00
41686;BME280;27370;42.764;23.432;2023-04-01T17:04:39;94402.53;;;6.75;100.00
41686;BME280;27370;42.764;23.432;2023-04-01T17:07:36;94411.41;;;6.72;100.00
41686;BME280;27370;42.764;23.432;2023-04-01T17:15:25;94442.66;;;6.66;100.00
41686;BME280;27370;42.764;23.432;2023-04-01T17:23:36;94468.75;;;6.42;100.00
41686;BME280;27370;42.764;23.432;2023-04-01T17:28:44;94469.88;;;6.45;100.00
41686;BME280;27370;42.764;23.432;2023-04-01T17:31:21;94473.25;;;6.49;100.00
41686;BME280;27370;42.764;23.432;2023-04-01T17:36:52;94481.78;;;6.44;100.00
41686;BME280;27370;42.764;23.432;2023-04-01T17:42:46;94484.38;;;6.24;100.00
41686;BME280;27370;42.764;23.432;2023-04-01T17:45:33;94489.03;;;6.20;100.00
41686;BME280;27370;42.764;23.432;2023-04-01T17:51:41;94482.31;;;6.05;100.00
41686;BME280;27370;42.764;23.432;2023-04-01T17:56:47;94505.03;;;6.00;100.00
41686;BME280;27370;42.764;23.432;2023-04-01T18:02:00;94518.94;;;5.95;100.00
41686;BME280;27370;42.764;23.432;2023-04-01T18:07:16;94514.31;;;5.96;100.00
41686;BME280;27370;42.764;23.432;2023-04-01T18:13:05;94511.81;;;5.78;100.00
41686;BME280;27370;42.764;23.432;2023-04-01T18:18:48;94518.97;;;5.88;100.00
41686;BME280;27370;42.764;23.432;2023-04-01T18:22:10;94524.44;;;5.81;100.00
41686;BME280;27370;42.764;23.432;2023-04-01T18:24:35;94522.28;;;5.69;100.00
41686;BME280;27370;42.764;23.432;2023-04-01T18:27:18;94515.88;;;5.56;100.00
41686;BME280;27370;42.764;23.432;2023-04-01T18:29:51;94520.59;;;5.48;100.00
41686;BME280;27370;42.764;23.432;2023-04-01T18:32:36;94522.16;;;5.45;100.00
41686;BME280;27370;42.764;23.432;2023-04-01T18:35:34;94537.69;;;5.61;100.00
41686;BME280;27370;42.764;23.432;2023-04-01T18:38:13;94539.59;;;5.61;100.00
41686;BME280;27370;42.764;23.432;2023-04-01T18:40:50;94534.63;;;5.59;100.00
41686;BME280;27370;42.764;23.432;2023-04-01T18:43:46;94557.50;;;5.74;100.00
41686;BME280;27370;42.764;23.432;2023-04-01T18:48:51;94565.38;;;5.96;100.00
41686;BME280;27370;42.764;23.432;2023-04-01T18:51:23;94558.38;;;6.02;100.00
41686;BME280;27370;42.764;23.432;2023-04-01T18:54:00;94576.31;;;6.12;100.00
41686;BME280;27370;42.764;23.432;2023-04-01T18:56:38;94565.16;;;6.13;100.00
41686;BME280;27370;42.764;23.432;2023-04-01T18:59:28;94577.06;;;6.12;100.00
41686;BME280;27370;42.764;23.432;2023-04-01T19:02:16;94571.81;;;6.02;100.00
41686;BME280;27370;42.764;23.432;2023-04-01T19:21:44;94574.25;;;5.89;100.00
41686;BME280;27370;42.764;23.432;2023-04-01T19:27:34;94591.13;;;5.86;100.00
41686;BME280;27370;42.764;23.432;2023-04-01T19:35:38;94599.47;;;5.99;100.00
41686;BME280;27370;42.764;23.432;2023-04-01T19:46:44;94617.16;;;5.96;100.00
41686;BME280;27370;42.764;23.432;2023-04-01T19:52:20;94629.84;;;5.96;100.00
41686;BME280;27370;42.764;23.432;2023-04-01T19:54:58;94623.63;;;6.02;100.00
41686;BME280;27370;42.764;23.432;2023-04-01T20:08:26;94640.06;;;6.11;100.00
41686;BME280;27370;42.764;23.432;2023-04-01T20:11:37;94638.88;;;6.12;100.00
41686;BME280;27370;42.764;23.432;2023-04-01T20:19:23;94634.22;;;6.17;100.00
41686;BME280;27370;42.764;23.432;2023-04-01T20:21:56;94628.56;;;6.07;100.00
41686;BME280;27370;42.764;23.432;2023-04-01T20:24:43;94638.22;;;6.01;100.00
41686;BME280;27370;42.764;23.432;2023-04-01T20:32:55;94660.94;;;6.31;100.00
41686;BME280;27370;42.764;23.432;2023-04-01T20:35:46;94659.41;;;6.30;100.00
41686;BME280;27370;42.764;23.432;2023-04-01T20:43:39;94656.31;;;6.35;100.00
41686;BME280;27370;42.764;23.432;2023-04-01T20:49:33;94662.22;;;6.53;100.00
41686;BME280;27370;42.764;23.432;2023-04-01T20:52:16;94656.97;;;6.42;100.00
41686;BME280;27370;42.764;23.432;2023-04-01T20:54:53;94668.50;;;6.43;100.00
41686;BME280;27370;42.764;23.432;2023-04-01T21:03:18;94666.41;;;6.24;100.00
41686;BME280;27370;42.764;23.432;2023-04-01T21:06:03;94660.34;;;6.16;100.00
41686;BME280;27370;42.764;23.432;2023-04-01T21:08:53;94669.84;;;6.24;100.00
41686;BME280;27370;42.764;23.432;2023-04-01T21:22:40;94683.47;;;6.44;100.00
41686;BME280;27370;42.764;23.432;2023-04-01T21:36:47;94685.25;;;6.54;100.00
41686;BME280;27370;42.764;23.432;2023-04-01T22:01:25;94668.09;;;6.07;100.00
41686;BME280;27370;42.764;23.432;2023-04-01T22:04:04;94669.00;;;5.97;100.00
41686;BME280;27370;42.764;23.432;2023-04-01T22:06:52;94657.97;;;5.80;100.00
41686;BME280;27370;42.764;23.432;2023-04-01T22:17:59;94680.84;;;5.54;100.00
41686;BME280;27370;42.764;23.432;2023-04-01T22:20:46;94675.25;;;5.31;100.00
41686;BME280;27370;42.764;23.432;2023-04-01T22:25:56;94675.34;;;5.17;100.00
41686;BME280;27370;42.764;23.432;2023-04-01T22:31:00;94670.47;;;4.98;100.00
41686;BME280;27370;42.764;23.432;2023-04-01T22:33:36;94665.94;;;4.91;100.00
41686;BME280;27370;42.764;23.432;2023-04-01T22:36:22;94668.38;;;4.64;100.00
41686;BME280;27370;42.764;23.432;2023-04-01T22:39:23;94665.00;;;4.53;100.00
41686;BME280;27370;42.764;23.432;2023-04-01T22:49:48;94655.50;;;4.27;100.00
41686;BME280;27370;42.764;23.432;2023-04-01T22:52:31;94660.03;;;4.44;100.00
41686;BME280;27370;42.764;23.432;2023-04-01T22:55:03;94665.75;;;4.57;100.00
41686;BME280;27370;42.764;23.432;2023-04-01T22:57:38;94672.53;;;4.79;100.00
41686;BME280;27370;42.764;23.432;2023-04-01T23:02:40;94667.16;;;4.79;100.00
41686;BME280;27370;42.764;23.432;2023-04-01T23:05:11;94682.81;;;4.88;100.00
41686;BME280;27370;42.764;23.432;2023-04-01T23:10:40;94693.88;;;5.01;100.00
41686;BME280;27370;42.764;23.432;2023-04-01T23:13:16;94695.53;;;4.70;100.00
41686;BME280;27370;42.764;23.432;2023-04-01T23:15:43;94704.72;;;4.76;100.00
41686;BME280;27370;42.764;23.432;2023-04-01T23:18:23;94710.09;;;4.72;100.00
41686;BME280;27370;42.764;23.432;2023-04-01T23:28:56;94694.53;;;4.39;100.00
41686;BME280;27370;42.764;23.432;2023-04-01T23:31:26;94704.47;;;4.42;100.00
41686;BME280;27370;42.764;23.432;2023-04-01T23:33:55;94707.16;;;4.42;100.00
41686;BME280;27370;42.764;23.432;2023-04-01T23:36:21;94693.78;;;4.24;100.00